sensor_id;sensor_type;location;lat;lon;timestamp;P1;durP1;ratioP1;P2;durP2;ratioP2
52104;SDS011;38103;42.776;23.112;2023-01-19T00:02:20;38.60;;;6.53;;
52104;SDS011;38103;42.776;23.112;2023-01-19T00:04:46;37.50;;;6.65;;
52104;SDS011;38103;42.776;23.112;2023-01-19T00:07:11;44.30;;;7.25;;
52104;SDS011;38103;42.776;23.112;2023-01-19T00:09:37;44.78;;;7.72;;
52104;SDS011;38103;42.776;23.112;2023-01-19T00:12:02;42.88;;;5.60;;
52104;SDS011;38103;42.776;23.112;2023-01-19T00:14:29;40.97;;;6.57;;
52104;SDS011;38103;42.776;23.112;2023-01-19T00:16:54;42.55;;;6.47;;
52104;SDS011;38103;42.776;23.112;2023-01-19T00:19:19;32.70;;;5.72;;
52104;SDS011;38103;42.776;23.112;2023-01-19T00:21:45;42.60;;;6.25;;
52104;SDS011;38103;42.776;23.112;2023-01-19T00:24:10;33.22;;;5.93;;
52104;SDS011;38103;42.776;23.112;2023-01-19T00:26:37;38.20;;;7.47;;
52104;SDS011;38103;42.776;23.112;2023-01-19T00:29:04;45.92;;;6.10;;
52104;SDS011;38103;42.776;23.112;2023-01-19T00:31:31;61.83;;;6.88;;
52104;SDS011;38103;42.776;23.112;2023-01-19T00:33:57;35.03;;;5.15;;
52104;SDS011;38103;42.776;23.112;2023-01-19T00:36:23;38.35;;;5.47;;
52104;SDS011;38103;42.776;23.112;2023-01-19T00:38:49;32.15;;;5.78;;
52104;SDS011;38103;42.776;23.112;2023-01-19T00:41:14;41.75;;;6.88;;
52104;SDS011;38103;42.776;23.112;2023-01-19T00:43:40;38.22;;;6.55;;
52104;SDS011;38103;42.776;23.112;2023-01-19T00:46:05;49.13;;;5.47;;
52104;SDS011;38103;42.776;23.112;2023-01-19T00:48:31;29.08;;;5.95;;
52104;SDS011;38103;42.776;23.112;2023-01-19T00:50:56;40.72;;;6.68;;
52104;SDS011;38103;42.776;23.112;2023-01-19T00:53:21;43.53;;;6.70;;
52104;SDS011;38103;42.776;23.112;2023-01-19T00:55:47;32.08;;;6.63;;
52104;SDS011;38103;42.776;23.112;2023-01-19T00:58:12;38.65;;;6.13;;
52104;SDS011;38103;42.776;23.112;2023-01-19T01:00:38;46.53;;;5.60;;
52104;SDS011;38103;42.776;23.112;2023-01-19T01:03:03;38.80;;;6.00;;
52104;SDS011;38103;42.776;23.112;2023-01-19T01:05:29;39.47;;;5.75;;
52104;SDS011;38103;42.776;23.112;2023-01-19T01:07:54;40.42;;;6.40;;
52104;SDS011;38103;42.776;23.112;2023-01-19T01:10:23;42.30;;;7.00;;
52104;SDS011;38103;42.776;23.112;2023-01-19T01:12:51;34.38;;;5.68;;
52104;SDS011;38103;42.776;23.112;2023-01-19T01:15:17;44.13;;;5.45;;
52104;SDS011;38103;42.776;23.112;2023-01-19T01:17:43;30.92;;;5.80;;
52104;SDS011;38103;42.776;23.112;2023-01-19T01:22:42;39.13;;;6.78;;
52104;SDS011;38103;42.776;23.112;2023-01-19T01:25:14;41.70;;;7.28;;
52104;SDS011;38103;42.776;23.112;2023-01-19T01:27:40;26.63;;;5.28;;
52104;SDS011;38103;42.776;23.112;2023-01-19T01:30:07;44.97;;;6.18;;
52104;SDS011;38103;42.776;23.112;2023-01-19T01:32:34;38.88;;;5.63;;
52104;SDS011;38103;42.776;23.112;2023-01-19T01:34:59;53.95;;;7.38;;
52104;SDS011;38103;42.776;23.112;2023-01-19T01:37:25;33.33;;;5.20;;
52104;SDS011;38103;42.776;23.112;2023-01-19T01:39:50;30.30;;;5.30;;
52104;SDS011;38103;42.776;23.112;2023-01-19T01:42:16;37.10;;;5.63;;
52104;SDS011;38103;42.776;23.112;2023-01-19T01:47:21;38.63;;;6.88;;
52104;SDS011;38103;42.776;23.112;2023-01-19T01:50:11;38.20;;;5.20;;
52104;SDS011;38103;42.776;23.112;2023-01-19T01:52:46;37.83;;;6.47;;
52104;SDS011;38103;42.776;23.112;2023-01-19T01:55:19;41.33;;;5.68;;
52104;SDS011;38103;42.776;23.112;2023-01-19T01:57:49;30.55;;;5.75;;
52104;SDS011;38103;42.776;23.112;2023-01-19T02:00:17;46.28;;;6.38;;
52104;SDS011;38103;42.776;23.112;2023-01-19T02:02:43;30.80;;;5.45;;
52104;SDS011;38103;42.776;23.112;2023-01-19T02:05:36;34.22;;;5.03;;
52104;SDS011;38103;42.776;23.112;2023-01-19T02:10:59;42.05;;;5.93;;
52104;SDS011;38103;42.776;23.112;2023-01-19T02:13:44;43.30;;;6.07;;
52104;SDS011;38103;42.776;23.112;2023-01-19T02:16:11;40.97;;;5.35;;
52104;SDS011;38103;42.776;23.112;2023-01-19T02:18:38;30.00;;;5.57;;
52104;SDS011;38103;42.776;23.112;2023-01-19T02:23:45;35.03;;;6.30;;
52104;SDS011;38103;42.776;23.112;2023-01-19T02:26:17;38.00;;;5.68;;
52104;SDS011;38103;42.776;23.112;2023-01-19T02:28:47;37.10;;;5.28;;
52104;SDS011;38103;42.776;23.112;2023-01-19T02:31:17;31.92;;;5.90;;
52104;SDS011;38103;42.776;23.112;2023-01-19T02:33:43;33.88;;;5.25;;
52104;SDS011;38103;42.776;23.112;2023-01-19T02:36:09;32.60;;;5.35;;
52104;SDS011;38103;42.776;23.112;2023-01-19T02:38:37;38.92;;;7.30;;
52104;SDS011;38103;42.776;23.112;2023-01-19T02:41:05;35.78;;;4.80;;
52104;SDS011;38103;42.776;23.112;2023-01-19T02:43:33;39.85;;;5.72;;
52104;SDS011;38103;42.776;23.112;2023-01-19T02:45:59;28.35;;;5.25;;
52104;SDS011;38103;42.776;23.112;2023-01-19T02:48:24;50.55;;;6.40;;
52104;SDS011;38103;42.776;23.112;2023-01-19T02:50:59;33.38;;;6.07;;
52104;SDS011;38103;42.776;23.112;2023-01-19T02:56:03;36.38;;;6.43;;
52104;SDS011;38103;42.776;23.112;2023-01-19T03:07:07;36.10;;;5.38;;
52104;SDS011;38103;42.776;23.112;2023-01-19T03:15:20;32.58;;;6.03;;
52104;SDS011;38103;42.776;23.112;2023-01-19T03:17:51;39.58;;;6.25;;
52104;SDS011;38103;42.776;23.112;2023-01-19T03:20:20;30.23;;;4.97;;
52104;SDS011;38103;42.776;23.112;2023-01-19T03:22:49;37.28;;;5.07;;
52104;SDS011;38103;42.776;23.112;2023-01-19T03:25:19;40.97;;;5.30;;
52104;SDS011;38103;42.776;23.112;2023-01-19T03:27:47;27.80;;;4.53;;
52104;SDS011;38103;42.776;23.112;2023-01-19T03:30:16;30.60;;;5.45;;
52104;SDS011;38103;42.776;23.112;2023-01-19T03:32:49;44.75;;;5.55;;
52104;SDS011;38103;42.776;23.112;2023-01-19T03:35:20;33.55;;;6.10;;
52104;SDS011;38103;42.776;23.112;2023-01-19T03:37:47;35.08;;;6.18;;
52104;SDS011;38103;42.776;23.112;2023-01-19T03:40:17;33.03;;;5.85;;
52104;SDS011;38103;42.776;23.112;2023-01-19T03:42:42;41.83;;;6.32;;
52104;SDS011;38103;42.776;23.112;2023-01-19T03:45:09;35.42;;;6.32;;
52104;SDS011;38103;42.776;23.112;2023-01-19T03:47:36;39.28;;;5.95;;
52104;SDS011;38103;42.776;23.112;2023-01-19T03:50:02;31.42;;;5.07;;
52104;SDS011;38103;42.776;23.112;2023-01-19T03:52:32;40.75;;;6.05;;
52104;SDS011;38103;42.776;23.112;2023-01-19T03:54:58;38.88;;;5.05;;
52104;SDS011;38103;42.776;23.112;2023-01-19T03:57:25;45.85;;;6.75;;
52104;SDS011;38103;42.776;23.112;2023-01-19T03:59:51;39.47;;;6.60;;
52104;SDS011;38103;42.776;23.112;2023-01-19T04:02:17;37.17;;;5.95;;
52104;SDS011;38103;42.776;23.112;2023-01-19T04:04:43;32.28;;;5.78;;
52104;SDS011;38103;42.776;23.112;2023-01-19T04:07:09;40.83;;;5.60;;
52104;SDS011;38103;42.776;23.112;2023-01-19T04:09:34;41.33;;;5.32;;
52104;SDS011;38103;42.776;23.112;2023-01-19T04:11:59;32.13;;;6.00;;
52104;SDS011;38103;42.776;23.112;2023-01-19T04:14:25;38.33;;;5.63;;
52104;SDS011;38103;42.776;23.112;2023-01-19T04:16:51;41.72;;;6.85;;
52104;SDS011;38103;42.776;23.112;2023-01-19T04:19:17;39.20;;;7.00;;
52104;SDS011;38103;42.776;23.112;2023-01-19T04:21:42;38.47;;;6.75;;
52104;SDS011;38103;42.776;23.112;2023-01-19T04:24:08;44.67;;;6.25;;
52104;SDS011;38103;42.776;23.112;2023-01-19T04:26:34;34.33;;;5.57;;
52104;SDS011;38103;42.776;23.112;2023-01-19T04:28:59;40.17;;;5.68;;
52104;SDS011;38103;42.776;23.112;2023-01-19T04:31:24;47.20;;;6.28;;
52104;SDS011;38103;42.776;23.112;2023-01-19T04:33:50;33.33;;;6.68;;
52104;SDS011;38103;42.776;23.112;2023-01-19T04:36:15;34.42;;;6.38;;
52104;SDS011;38103;42.776;23.112;2023-01-19T04:38:41;40.03;;;6.47;;
52104;SDS011;38103;42.776;23.112;2023-01-19T04:41:06;37.55;;;5.72;;
52104;SDS011;38103;42.776;23.112;2023-01-19T04:43:32;43.03;;;8.93;;
52104;SDS011;38103;42.776;23.112;2023-01-19T04:45:57;50.22;;;6.93;;
52104;SDS011;38103;42.776;23.112;2023-01-19T04:48:23;45.95;;;6.72;;
52104;SDS011;38103;42.776;23.112;2023-01-19T04:50:49;45.55;;;6.63;;
52104;SDS011;38103;42.776;23.112;2023-01-19T04:53:15;45.72;;;6.50;;
52104;SDS011;38103;42.776;23.112;2023-01-19T04:55:42;35.75;;;5.72;;
52104;SDS011;38103;42.776;23.112;2023-01-19T04:58:08;43.60;;;6.65;;
52104;SDS011;38103;42.776;23.112;2023-01-19T05:00:34;45.10;;;6.43;;
52104;SDS011;38103;42.776;23.112;2023-01-19T05:03:00;35.25;;;5.95;;
52104;SDS011;38103;42.776;23.112;2023-01-19T05:05:26;38.70;;;8.00;;
52104;SDS011;38103;42.776;23.112;2023-01-19T05:07:51;49.55;;;7.15;;
52104;SDS011;38103;42.776;23.112;2023-01-19T05:10:17;39.22;;;6.85;;
52104;SDS011;38103;42.776;23.112;2023-01-19T05:12:42;31.35;;;5.03;;
52104;SDS011;38103;42.776;23.112;2023-01-19T05:15:08;43.75;;;6.18;;
52104;SDS011;38103;42.776;23.112;2023-01-19T05:17:34;33.85;;;4.97;;
52104;SDS011;38103;42.776;23.112;2023-01-19T05:20:00;38.33;;;5.78;;
52104;SDS011;38103;42.776;23.112;2023-01-19T05:22:26;33.85;;;5.70;;
52104;SDS011;38103;42.776;23.112;2023-01-19T05:24:51;47.80;;;6.75;;
52104;SDS011;38103;42.776;23.112;2023-01-19T05:27:16;39.13;;;7.28;;
52104;SDS011;38103;42.776;23.112;2023-01-19T05:29:42;48.45;;;7.60;;
52104;SDS011;38103;42.776;23.112;2023-01-19T05:32:07;41.00;;;7.68;;
52104;SDS011;38103;42.776;23.112;2023-01-19T05:34:33;37.05;;;5.70;;
52104;SDS011;38103;42.776;23.112;2023-01-19T05:36:58;41.03;;;5.93;;
52104;SDS011;38103;42.776;23.112;2023-01-19T05:39:23;37.80;;;5.82;;
52104;SDS011;38103;42.776;23.112;2023-01-19T05:41:50;42.28;;;6.90;;
52104;SDS011;38103;42.776;23.112;2023-01-19T05:44:16;37.90;;;5.88;;
52104;SDS011;38103;42.776;23.112;2023-01-19T05:46:41;45.72;;;6.03;;
52104;SDS011;38103;42.776;23.112;2023-01-19T05:49:06;49.47;;;7.47;;
52104;SDS011;38103;42.776;23.112;2023-01-19T05:51:32;45.35;;;6.80;;
52104;SDS011;38103;42.776;23.112;2023-01-19T05:54:10;42.90;;;7.63;;
52104;SDS011;38103;42.776;23.112;2023-01-19T05:56:37;38.15;;;6.43;;
52104;SDS011;38103;42.776;23.112;2023-01-19T05:59:03;40.47;;;5.35;;
52104;SDS011;38103;42.776;23.112;2023-01-19T06:01:29;42.35;;;6.30;;
52104;SDS011;38103;42.776;23.112;2023-01-19T06:03:55;47.70;;;6.30;;
52104;SDS011;38103;42.776;23.112;2023-01-19T06:06:20;48.72;;;6.93;;
52104;SDS011;38103;42.776;23.112;2023-01-19T06:08:46;57.03;;;8.00;;
52104;SDS011;38103;42.776;23.112;2023-01-19T06:11:11;48.22;;;5.93;;
52104;SDS011;38103;42.776;23.112;2023-01-19T06:13:37;39.13;;;5.93;;
52104;SDS011;38103;42.776;23.112;2023-01-19T06:16:05;45.05;;;5.78;;
52104;SDS011;38103;42.776;23.112;2023-01-19T06:18:31;46.13;;;7.63;;
52104;SDS011;38103;42.776;23.112;2023-01-19T06:20:57;46.83;;;6.55;;
52104;SDS011;38103;42.776;23.112;2023-01-19T06:23:23;46.67;;;6.30;;
52104;SDS011;38103;42.776;23.112;2023-01-19T06:25:54;38.65;;;7.18;;
52104;SDS011;38103;42.776;23.112;2023-01-19T06:28:19;42.42;;;6.28;;
52104;SDS011;38103;42.776;23.112;2023-01-19T06:30:48;49.63;;;7.18;;
52104;SDS011;38103;42.776;23.112;2023-01-19T06:33:14;37.75;;;6.65;;
52104;SDS011;38103;42.776;23.112;2023-01-19T06:35:43;47.50;;;6.25;;
52104;SDS011;38103;42.776;23.112;2023-01-19T06:38:10;52.85;;;8.00;;
52104;SDS011;38103;42.776;23.112;2023-01-19T06:40:37;43.50;;;6.95;;
52104;SDS011;38103;42.776;23.112;2023-01-19T06:43:03;57.70;;;6.80;;
52104;SDS011;38103;42.776;23.112;2023-01-19T06:45:28;52.70;;;7.80;;
52104;SDS011;38103;42.776;23.112;2023-01-19T06:47:54;57.83;;;7.22;;
52104;SDS011;38103;42.776;23.112;2023-01-19T06:50:19;45.53;;;8.30;;
52104;SDS011;38103;42.776;23.112;2023-01-19T06:52:45;38.90;;;7.30;;
52104;SDS011;38103;42.776;23.112;2023-01-19T06:55:14;43.42;;;7.43;;
52104;SDS011;38103;42.776;23.112;2023-01-19T06:57:40;47.85;;;7.97;;
52104;SDS011;38103;42.776;23.112;2023-01-19T07:00:05;39.92;;;6.68;;
52104;SDS011;38103;42.776;23.112;2023-01-19T07:02:36;48.25;;;8.10;;
52104;SDS011;38103;42.776;23.112;2023-01-19T07:05:08;48.05;;;8.07;;
52104;SDS011;38103;42.776;23.112;2023-01-19T07:07:34;54.17;;;8.43;;
52104;SDS011;38103;42.776;23.112;2023-01-19T07:10:00;38.72;;;7.15;;
52104;SDS011;38103;42.776;23.112;2023-01-19T07:12:26;51.08;;;7.50;;
52104;SDS011;38103;42.776;23.112;2023-01-19T07:14:51;55.10;;;9.23;;
52104;SDS011;38103;42.776;23.112;2023-01-19T07:17:17;44.13;;;6.80;;
52104;SDS011;38103;42.776;23.112;2023-01-19T07:19:43;53.00;;;7.63;;
52104;SDS011;38103;42.776;23.112;2023-01-19T07:22:08;46.42;;;7.00;;
52104;SDS011;38103;42.776;23.112;2023-01-19T07:24:34;53.67;;;8.25;;
52104;SDS011;38103;42.776;23.112;2023-01-19T07:26:59;57.30;;;7.07;;
52104;SDS011;38103;42.776;23.112;2023-01-19T07:29:25;51.22;;;8.75;;
52104;SDS011;38103;42.776;23.112;2023-01-19T07:31:50;45.70;;;8.15;;
52104;SDS011;38103;42.776;23.112;2023-01-19T07:34:18;45.25;;;7.85;;
52104;SDS011;38103;42.776;23.112;2023-01-19T07:36:44;58.40;;;9.05;;
52104;SDS011;38103;42.776;23.112;2023-01-19T07:39:09;54.50;;;7.47;;
52104;SDS011;38103;42.776;23.112;2023-01-19T07:41:35;48.72;;;8.38;;
52104;SDS011;38103;42.776;23.112;2023-01-19T07:44:00;55.28;;;8.18;;
52104;SDS011;38103;42.776;23.112;2023-01-19T07:46:25;44.17;;;8.02;;
52104;SDS011;38103;42.776;23.112;2023-01-19T07:48:51;49.63;;;6.85;;
52104;SDS011;38103;42.776;23.112;2023-01-19T07:51:16;50.90;;;7.70;;
52104;SDS011;38103;42.776;23.112;2023-01-19T07:53:43;43.67;;;8.55;;
52104;SDS011;38103;42.776;23.112;2023-01-19T07:56:09;45.25;;;7.40;;
52104;SDS011;38103;42.776;23.112;2023-01-19T10:19:46;48.97;;;11.30;;
52104;SDS011;38103;42.776;23.112;2023-01-19T10:22:21;40.63;;;7.60;;
52104;SDS011;38103;42.776;23.112;2023-01-19T10:24:50;34.92;;;10.30;;
52104;SDS011;38103;42.776;23.112;2023-01-19T10:27:21;54.70;;;12.13;;
52104;SDS011;38103;42.776;23.112;2023-01-19T10:29:50;33.83;;;7.70;;
52104;SDS011;38103;42.776;23.112;2023-01-19T10:32:17;51.65;;;10.68;;
52104;SDS011;38103;42.776;23.112;2023-01-19T10:34:50;43.33;;;10.50;;
52104;SDS011;38103;42.776;23.112;2023-01-19T10:37:20;47.88;;;11.50;;
52104;SDS011;38103;42.776;23.112;2023-01-19T10:40:05;49.28;;;10.18;;
52104;SDS011;38103;42.776;23.112;2023-01-19T10:42:40;50.55;;;10.00;;
52104;SDS011;38103;42.776;23.112;2023-01-19T10:45:19;34.10;;;6.40;;
52104;SDS011;38103;42.776;23.112;2023-01-19T10:47:47;35.00;;;7.00;;
52104;SDS011;38103;42.776;23.112;2023-01-19T10:50:35;28.08;;;5.40;;
52104;SDS011;38103;42.776;23.112;2023-01-19T10:53:03;30.00;;;7.03;;
52104;SDS011;38103;42.776;23.112;2023-01-19T10:55:38;38.92;;;9.23;;
52104;SDS011;38103;42.776;23.112;2023-01-19T10:58:04;47.92;;;9.55;;
52104;SDS011;38103;42.776;23.112;2023-01-19T11:00:38;39.50;;;6.03;;
52104;SDS011;38103;42.776;23.112;2023-01-19T11:03:20;33.15;;;7.15;;
52104;SDS011;38103;42.776;23.112;2023-01-19T11:05:47;27.23;;;5.30;;
52104;SDS011;38103;42.776;23.112;2023-01-19T11:08:23;32.03;;;5.63;;
52104;SDS011;38103;42.776;23.112;2023-01-19T11:11:03;24.67;;;5.60;;
52104;SDS011;38103;42.776;23.112;2023-01-19T11:13:29;34.20;;;6.25;;
52104;SDS011;38103;42.776;23.112;2023-01-19T11:15:56;34.30;;;6.47;;
52104;SDS011;38103;42.776;23.112;2023-01-19T11:18:36;30.55;;;6.10;;
52104;SDS011;38103;42.776;23.112;2023-01-19T11:21:08;43.15;;;7.28;;
52104;SDS011;38103;42.776;23.112;2023-01-19T11:26:15;31.15;;;5.60;;
52104;SDS011;38103;42.776;23.112;2023-01-19T11:28:50;28.45;;;6.07;;
52104;SDS011;38103;42.776;23.112;2023-01-19T11:33:54;29.52;;;5.88;;
52104;SDS011;38103;42.776;23.112;2023-01-19T11:36:22;37.05;;;7.10;;
52104;SDS011;38103;42.776;23.112;2023-01-19T11:38:56;25.55;;;4.68;;
52104;SDS011;38103;42.776;23.112;2023-01-19T11:41:30;35.22;;;5.95;;
52104;SDS011;38103;42.776;23.112;2023-01-19T11:44:08;30.40;;;5.63;;
52104;SDS011;38103;42.776;23.112;2023-01-19T11:46:42;26.83;;;5.72;;
52104;SDS011;38103;42.776;23.112;2023-01-19T11:49:19;30.85;;;5.00;;
52104;SDS011;38103;42.776;23.112;2023-01-19T11:51:58;26.20;;;4.60;;
52104;SDS011;38103;42.776;23.112;2023-01-19T11:54:34;36.63;;;5.82;;
52104;SDS011;38103;42.776;23.112;2023-01-19T11:57:05;34.33;;;5.28;;
52104;SDS011;38103;42.776;23.112;2023-01-19T11:59:36;32.50;;;4.28;;
52104;SDS011;38103;42.776;23.112;2023-01-19T12:02:03;22.27;;;4.55;;
52104;SDS011;38103;42.776;23.112;2023-01-19T12:04:40;27.33;;;5.00;;
52104;SDS011;38103;42.776;23.112;2023-01-19T12:07:08;24.67;;;5.45;;
52104;SDS011;38103;42.776;23.112;2023-01-19T12:09:40;28.15;;;4.47;;
52104;SDS011;38103;42.776;23.112;2023-01-19T12:12:28;32.50;;;4.20;;
52104;SDS011;38103;42.776;23.112;2023-01-19T12:15:04;23.63;;;3.83;;
52104;SDS011;38103;42.776;23.112;2023-01-19T12:17:34;28.17;;;4.88;;
52104;SDS011;38103;42.776;23.112;2023-01-19T12:20:06;26.25;;;4.20;;
52104;SDS011;38103;42.776;23.112;2023-01-19T12:22:45;26.05;;;4.05;;
52104;SDS011;38103;42.776;23.112;2023-01-19T12:25:19;22.80;;;4.22;;
52104;SDS011;38103;42.776;23.112;2023-01-19T12:27:48;26.15;;;4.80;;
52104;SDS011;38103;42.776;23.112;2023-01-19T12:30:25;31.80;;;5.05;;
52104;SDS011;38103;42.776;23.112;2023-01-19T12:36:02;25.23;;;4.82;;
52104;SDS011;38103;42.776;23.112;2023-01-19T12:38:38;30.95;;;5.80;;
52104;SDS011;38103;42.776;23.112;2023-01-19T12:46:33;27.63;;;4.70;;
52104;SDS011;38103;42.776;23.112;2023-01-19T12:49:08;21.23;;;4.28;;
52104;SDS011;38103;42.776;23.112;2023-01-19T12:51:45;24.52;;;5.13;;
52104;SDS011;38103;42.776;23.112;2023-01-19T12:54:30;28.38;;;4.50;;
52104;SDS011;38103;42.776;23.112;2023-01-19T12:56:58;32.28;;;4.45;;
52104;SDS011;38103;42.776;23.112;2023-01-19T12:59:26;20.95;;;5.43;;
52104;SDS011;38103;42.776;23.112;2023-01-19T13:18:48;18.30;;;3.70;;
52104;SDS011;38103;42.776;23.112;2023-01-19T13:22:47;18.83;;;3.47;;
52104;SDS011;38103;42.776;23.112;2023-01-19T13:24:12;18.08;;;3.25;;
52104;SDS011;38103;42.776;23.112;2023-01-19T13:31:45;16.55;;;3.25;;
52104;SDS011;38103;42.776;23.112;2023-01-19T13:34:18;16.40;;;3.03;;
52104;SDS011;38103;42.776;23.112;2023-01-19T13:36:48;21.88;;;4.07;;
52104;SDS011;38103;42.776;23.112;2023-01-19T13:39:16;20.63;;;3.95;;
52104;SDS011;38103;42.776;23.112;2023-01-19T13:41:47;16.05;;;3.25;;
52104;SDS011;38103;42.776;23.112;2023-01-19T13:44:58;19.65;;;4.00;;
52104;SDS011;38103;42.776;23.112;2023-01-19T13:47:12;23.70;;;4.15;;
52104;SDS011;38103;42.776;23.112;2023-01-19T13:49:44;23.88;;;4.30;;
52104;SDS011;38103;42.776;23.112;2023-01-19T13:54:50;15.38;;;3.33;;
52104;SDS011;38103;42.776;23.112;2023-01-19T13:57:29;11.70;;;3.20;;
52104;SDS011;38103;42.776;23.112;2023-01-19T14:02:41;17.20;;;3.25;;
52104;SDS011;38103;42.776;23.112;2023-01-19T14:10:36;17.42;;;3.60;;
52104;SDS011;38103;42.776;23.112;2023-01-19T14:15:50;16.67;;;3.72;;
52104;SDS011;38103;42.776;23.112;2023-01-19T14:34:37;20.90;;;3.88;;
52104;SDS011;38103;42.776;23.112;2023-01-19T14:37:15;35.30;;;4.18;;
52104;SDS011;38103;42.776;23.112;2023-01-19T14:40:31;15.65;;;3.25;;
52104;SDS011;38103;42.776;23.112;2023-01-19T14:42:33;18.25;;;3.45;;
52104;SDS011;38103;42.776;23.112;2023-01-19T14:45:03;14.40;;;3.20;;
52104;SDS011;38103;42.776;23.112;2023-01-19T14:47:38;21.25;;;3.22;;
52104;SDS011;38103;42.776;23.112;2023-01-19T14:50:29;20.23;;;3.85;;
52104;SDS011;38103;42.776;23.112;2023-01-19T14:53:03;17.77;;;3.88;;
52104;SDS011;38103;42.776;23.112;2023-01-19T14:55:35;19.02;;;3.50;;
52104;SDS011;38103;42.776;23.112;2023-01-19T14:58:09;22.15;;;5.05;;
52104;SDS011;38103;42.776;23.112;2023-01-19T15:00:35;11.70;;;3.15;;
52104;SDS011;38103;42.776;23.112;2023-01-19T15:03:01;18.73;;;3.45;;
52104;SDS011;38103;42.776;23.112;2023-01-19T15:05:26;19.05;;;3.00;;
52104;SDS011;38103;42.776;23.112;2023-01-19T15:07:52;20.30;;;3.33;;
52104;SDS011;38103;42.776;23.112;2023-01-19T15:10:19;16.10;;;3.15;;
52104;SDS011;38103;42.776;23.112;2023-01-19T15:12:50;17.45;;;3.08;;
52104;SDS011;38103;42.776;23.112;2023-01-19T15:15:19;16.58;;;3.00;;
52104;SDS011;38103;42.776;23.112;2023-01-19T15:17:56;17.58;;;3.70;;
52104;SDS011;38103;42.776;23.112;2023-01-19T15:20:23;17.52;;;3.10;;
52104;SDS011;38103;42.776;23.112;2023-01-19T15:22:48;18.55;;;3.85;;
52104;SDS011;38103;42.776;23.112;2023-01-19T15:25:14;11.85;;;2.92;;
52104;SDS011;38103;42.776;23.112;2023-01-19T15:27:42;15.55;;;3.17;;
52104;SDS011;38103;42.776;23.112;2023-01-19T15:30:15;19.98;;;3.40;;
52104;SDS011;38103;42.776;23.112;2023-01-19T15:32:43;19.63;;;3.20;;
52104;SDS011;38103;42.776;23.112;2023-01-19T15:35:14;24.35;;;3.38;;
52104;SDS011;38103;42.776;23.112;2023-01-19T15:37:41;15.70;;;3.28;;
52104;SDS011;38103;42.776;23.112;2023-01-19T15:40:07;17.05;;;3.30;;
52104;SDS011;38103;42.776;23.112;2023-01-19T15:42:33;23.98;;;3.85;;
52104;SDS011;38103;42.776;23.112;2023-01-19T15:44:59;17.80;;;3.50;;
52104;SDS011;38103;42.776;23.112;2023-01-19T15:47:24;17.80;;;3.83;;
52104;SDS011;38103;42.776;23.112;2023-01-19T15:49:49;20.50;;;3.33;;
52104;SDS011;38103;42.776;23.112;2023-01-19T15:52:15;17.33;;;3.28;;
52104;SDS011;38103;42.776;23.112;2023-01-19T15:54:40;14.85;;;3.83;;
52104;SDS011;38103;42.776;23.112;2023-01-19T15:57:05;21.90;;;4.65;;
52104;SDS011;38103;42.776;23.112;2023-01-19T15:59:31;16.25;;;3.17;;
52104;SDS011;38103;42.776;23.112;2023-01-19T16:01:56;21.10;;;3.95;;
52104;SDS011;38103;42.776;23.112;2023-01-19T16:04:22;17.98;;;3.33;;
52104;SDS011;38103;42.776;23.112;2023-01-19T16:06:47;19.90;;;3.40;;
52104;SDS011;38103;42.776;23.112;2023-01-19T16:09:14;16.80;;;3.05;;
52104;SDS011;38103;42.776;23.112;2023-01-19T16:11:42;16.90;;;3.55;;
52104;SDS011;38103;42.776;23.112;2023-01-19T16:14:08;17.33;;;3.08;;
52104;SDS011;38103;42.776;23.112;2023-01-19T16:16:33;16.88;;;3.40;;
52104;SDS011;38103;42.776;23.112;2023-01-19T16:18:59;15.43;;;3.65;;
52104;SDS011;38103;42.776;23.112;2023-01-19T16:21:24;18.63;;;3.13;;
52104;SDS011;38103;42.776;23.112;2023-01-19T16:23:50;11.35;;;2.70;;
52104;SDS011;38103;42.776;23.112;2023-01-19T16:26:29;13.57;;;2.80;;
52104;SDS011;38103;42.776;23.112;2023-01-19T16:28:58;13.13;;;3.40;;
52104;SDS011;38103;42.776;23.112;2023-01-19T16:31:26;17.77;;;3.35;;
52104;SDS011;38103;42.776;23.112;2023-01-19T16:33:52;24.50;;;5.80;;
52104;SDS011;38103;42.776;23.112;2023-01-19T16:36:21;16.88;;;3.03;;
52104;SDS011;38103;42.776;23.112;2023-01-19T16:38:56;19.15;;;4.35;;
52104;SDS011;38103;42.776;23.112;2023-01-19T16:41:23;13.77;;;3.20;;
52104;SDS011;38103;42.776;23.112;2023-01-19T16:43:50;15.63;;;3.35;;
52104;SDS011;38103;42.776;23.112;2023-01-19T16:46:29;15.48;;;2.95;;
52104;SDS011;38103;42.776;23.112;2023-01-19T16:48:58;15.88;;;3.10;;
52104;SDS011;38103;42.776;23.112;2023-01-19T16:51:25;11.85;;;2.80;;
52104;SDS011;38103;42.776;23.112;2023-01-19T16:53:51;18.25;;;3.30;;
52104;SDS011;38103;42.776;23.112;2023-01-19T16:56:16;16.48;;;3.90;;
52104;SDS011;38103;42.776;23.112;2023-01-19T16:58:42;15.82;;;4.22;;
52104;SDS011;38103;42.776;23.112;2023-01-19T17:01:09;14.15;;;4.22;;
52104;SDS011;38103;42.776;23.112;2023-01-19T17:03:39;11.60;;;2.90;;
52104;SDS011;38103;42.776;23.112;2023-01-19T17:06:06;13.90;;;3.03;;
52104;SDS011;38103;42.776;23.112;2023-01-19T17:08:33;17.08;;;3.17;;
52104;SDS011;38103;42.776;23.112;2023-01-19T17:10:59;19.35;;;3.60;;
52104;SDS011;38103;42.776;23.112;2023-01-19T17:13:30;18.50;;;3.22;;
52104;SDS011;38103;42.776;23.112;2023-01-19T17:15:59;15.00;;;3.22;;
52104;SDS011;38103;42.776;23.112;2023-01-19T17:18:25;12.15;;;3.13;;
52104;SDS011;38103;42.776;23.112;2023-01-19T17:20:51;18.77;;;3.90;;
52104;SDS011;38103;42.776;23.112;2023-01-19T17:23:16;15.32;;;3.67;;
52104;SDS011;38103;42.776;23.112;2023-01-19T17:25:41;16.55;;;3.60;;
52104;SDS011;38103;42.776;23.112;2023-01-19T17:28:07;19.13;;;3.83;;
52104;SDS011;38103;42.776;23.112;2023-01-19T17:30:32;14.35;;;3.45;;
52104;SDS011;38103;42.776;23.112;2023-01-19T17:32:57;16.23;;;3.50;;
52104;SDS011;38103;42.776;23.112;2023-01-19T17:35:23;19.63;;;4.07;;
52104;SDS011;38103;42.776;23.112;2023-01-19T17:37:51;15.07;;;4.45;;
52104;SDS011;38103;42.776;23.112;2023-01-19T17:40:18;16.98;;;3.35;;
52104;SDS011;38103;42.776;23.112;2023-01-19T17:42:43;17.20;;;3.05;;
52104;SDS011;38103;42.776;23.112;2023-01-19T17:45:09;17.38;;;3.85;;
52104;SDS011;38103;42.776;23.112;2023-01-19T17:47:35;16.95;;;4.25;;
52104;SDS011;38103;42.776;23.112;2023-01-19T17:50:01;22.13;;;3.67;;
52104;SDS011;38103;42.776;23.112;2023-01-19T17:52:27;16.50;;;3.53;;
52104;SDS011;38103;42.776;23.112;2023-01-19T17:54:52;12.90;;;3.47;;
52104;SDS011;38103;42.776;23.112;2023-01-19T17:57:17;12.90;;;3.88;;
52104;SDS011;38103;42.776;23.112;2023-01-19T17:59:42;14.27;;;3.53;;
52104;SDS011;38103;42.776;23.112;2023-01-19T18:02:08;14.45;;;3.55;;
52104;SDS011;38103;42.776;23.112;2023-01-19T18:04:37;14.73;;;3.17;;
52104;SDS011;38103;42.776;23.112;2023-01-19T18:07:03;13.70;;;3.20;;
52104;SDS011;38103;42.776;23.112;2023-01-19T18:09:28;11.23;;;2.92;;
52104;SDS011;38103;42.776;23.112;2023-01-19T18:11:54;11.13;;;2.72;;
52104;SDS011;38103;42.776;23.112;2023-01-19T18:14:19;10.98;;;2.95;;
52104;SDS011;38103;42.776;23.112;2023-01-19T18:16:45;7.80;;;2.53;;
52104;SDS011;38103;42.776;23.112;2023-01-19T18:19:10;12.75;;;2.42;;
52104;SDS011;38103;42.776;23.112;2023-01-19T18:21:35;7.57;;;2.50;;
52104;SDS011;38103;42.776;23.112;2023-01-19T18:24:02;10.10;;;2.72;;